createdAt,value
2019-05-13T00:02:27.229Z,0.59
2019-05-13T00:07:36.357Z,0.38
2019-05-13T00:12:45.402Z,0.59
2019-05-13T00:17:54.596Z,0.58
2019-05-13T00:23:04.152Z,0.56
2019-05-13T00:28:14.205Z,0.76
2019-05-13T00:33:20.930Z,0.67
2019-05-13T00:38:30.108Z,0.70
2019-05-13T00:43:39.151Z,0.75
2019-05-13T00:48:48.415Z,0.65
2019-05-13T00:53:57.450Z,0.62
2019-05-13T00:59:07.034Z,0.75
2019-05-13T01:04:16.074Z,0.49
2019-05-13T01:09:25.175Z,0.75
2019-05-13T01:14:34.439Z,0.69
2019-05-13T01:19:43.324Z,0.73
2019-05-13T01:24:51.490Z,0.67
2019-05-13T01:30:00.607Z,0.69
2019-05-13T01:35:09.642Z,0.63
2019-05-13T01:40:18.781Z,0.52
2019-05-13T01:45:28.118Z,0.75
2019-05-13T01:50:37.316Z,0.77
2019-05-13T01:55:46.370Z,0.95
2019-05-13T02:00:55.561Z,0.46
2019-05-13T02:06:04.565Z,0.81
2019-05-13T02:11:13.680Z,0.94
2019-05-13T02:16:24.402Z,0.55
2019-05-13T02:21:33.478Z,0.65
2019-05-13T02:26:40.106Z,0.72
2019-05-13T02:31:55.113Z,0.68
2019-05-13T02:36:57.876Z,0.69
2019-05-13T02:42:07.011Z,0.78
2019-05-13T02:47:16.057Z,0.58
2019-05-13T02:52:25.187Z,0.59
2019-05-13T02:57:34.257Z,0.54
2019-05-13T03:02:44.144Z,0.59
2019-05-13T03:07:53.026Z,0.84
2019-05-13T03:13:03.548Z,0.46
2019-05-13T03:18:12.558Z,0.59
2019-05-13T03:23:18.018Z,0.63
2019-05-13T03:28:27.074Z,0.50
2019-05-13T03:33:37.817Z,0.67
2019-05-13T03:38:59.895Z,0.57
2019-05-13T03:43:53.578Z,0.58
2019-05-13T03:49:02.609Z,0.58
2019-05-13T03:54:12.871Z,0.76
2019-05-13T03:59:22.497Z,0.61
2019-05-13T04:04:32.161Z,0.61
2019-05-13T04:09:37.505Z,0.64
2019-05-13T04:14:46.679Z,0.75
2019-05-13T04:19:55.722Z,0.60
2019-05-13T04:25:04.849Z,0.59
2019-05-13T04:30:13.875Z,0.65
2019-05-13T04:35:23.691Z,0.58
2019-05-13T04:40:33.238Z,0.62
2019-05-13T04:45:43.044Z,0.69
2019-05-13T04:50:48.789Z,0.73
2019-05-13T04:55:57.930Z,0.43
2019-05-13T05:01:09.019Z,0.73
2019-05-13T05:06:15.743Z,0.56
2019-05-13T05:11:24.788Z,0.66
2019-05-13T05:16:33.957Z,0.73
2019-05-13T05:21:43.017Z,0.62
2019-05-13T05:26:52.292Z,0.64
2019-05-13T05:32:01.934Z,0.63
2019-05-13T05:37:11.812Z,0.52
2019-05-13T05:42:18.714Z,0.82
2019-05-13T05:47:27.786Z,0.82
2019-05-13T05:52:36.836Z,0.61
2019-05-13T05:57:45.914Z,0.72
2019-05-13T06:02:54.967Z,0.79
2019-05-13T06:08:04.113Z,0.69
2019-05-13T06:13:13.247Z,0.87
2019-05-13T06:18:22.518Z,0.75
2019-05-13T06:23:31.560Z,0.70
2019-05-13T06:28:41.441Z,0.61
2019-05-13T06:33:51.292Z,0.75
2019-05-13T06:38:57.979Z,0.67
2019-05-13T06:44:07.032Z,0.73
2019-05-13T06:49:16.158Z,0.80
2019-05-13T06:54:26.217Z,0.74
2019-05-13T06:59:25.212Z,0.72
2019-05-13T07:04:34.225Z,0.69
2019-05-13T07:09:43.558Z,0.76
2019-05-13T07:14:52.592Z,0.84
2019-05-13T07:20:02.474Z,0.78
2019-05-13T07:25:11.412Z,0.62
2019-05-13T07:30:21.230Z,0.94
2019-05-13T07:35:30.966Z,0.82
2019-05-13T07:40:36.484Z,0.80
2019-05-13T07:45:45.500Z,0.65
2019-05-13T07:51:00.248Z,0.67
2019-05-13T07:56:03.229Z,0.92
2019-05-13T08:01:12.494Z,0.71
2019-05-13T08:06:22.142Z,0.73
2019-05-13T08:11:35.280Z,0.92
2019-05-13T08:16:38.795Z,0.87
2019-05-13T08:21:47.906Z,0.98
2019-05-13T08:26:56.931Z,1.07
2019-05-13T08:32:06.084Z,1.13
2019-05-13T08:37:15.123Z,0.83
2019-05-13T08:42:24.274Z,1.13
2019-05-13T08:47:33.563Z,0.97
2019-05-13T08:52:43.194Z,1.29
2019-05-13T08:57:54.916Z,1.03
2019-05-13T09:03:01.711Z,1.18
2019-05-13T09:08:11.500Z,0.94
2019-05-13T09:13:19.050Z,1.22
2019-05-13T09:18:28.122Z,1.03
2019-05-13T09:23:37.231Z,1.15
2019-05-13T09:28:46.309Z,1.12
2019-05-13T09:33:55.472Z,1.34
2019-05-13T09:39:04.720Z,1.45
2019-05-13T09:44:13.834Z,1.43
2019-05-13T09:49:23.649Z,1.31
2019-05-13T09:54:32.885Z,1.23
2019-05-13T09:59:42.224Z,1.49
2019-05-13T10:04:51.798Z,1.22
2019-05-13T10:09:52.119Z,1.19
2019-05-13T10:15:01.751Z,1.21
2019-05-13T10:20:08.103Z,1.23
2019-05-13T10:25:17.229Z,1.19
2019-05-13T10:30:26.274Z,1.23
2019-05-13T10:35:35.512Z,1.23
2019-05-13T10:40:44.584Z,1.11
2019-05-13T10:45:53.699Z,1.11
2019-05-13T10:51:02.753Z,1.31
2019-05-13T10:56:11.873Z,1.22
2019-05-13T11:01:22.545Z,1.42
2019-05-13T11:06:32.088Z,1.18
2019-05-13T11:11:38.226Z,1.30
2019-05-13T11:16:47.358Z,1.11
2019-05-13T11:21:56.552Z,1.45
2019-05-13T11:27:05.678Z,1.24
2019-05-13T11:32:15.455Z,1.24
2019-05-13T11:37:24.714Z,1.18
2019-05-13T11:42:33.787Z,1.23
2019-05-13T11:47:42.960Z,1.06
2019-05-13T11:52:52.605Z,1.08
2019-05-13T11:58:02.882Z,1.15
2019-05-13T12:03:09.375Z,1.15
2019-05-13T12:08:18.567Z,0.90
2019-05-13T12:13:27.712Z,1.02
2019-05-13T12:18:43.255Z,1.07
2019-05-13T12:23:45.462Z,1.40
2019-05-13T12:28:54.654Z,1.10
2019-05-13T12:34:03.784Z,1.10
2019-05-13T12:39:14.262Z,1.10
2019-05-13T12:44:22.853Z,1.20
2019-05-13T12:49:33.516Z,1.15
2019-05-13T12:54:42.713Z,0.92
2019-05-13T12:59:48.104Z,0.93
2019-05-13T13:05:14.229Z,1.01
2019-05-13T13:10:05.893Z,1.02
2019-05-13T13:15:35.930Z,0.89
2019-05-13T13:20:24.290Z,0.94
2019-05-13T13:25:33.823Z,1.00
2019-05-13T13:30:43.862Z,1.04
2019-05-13T13:35:58.599Z,0.91
2019-05-13T13:40:58.414Z,1.03
2019-05-13T13:46:23.208Z,1.16
2019-05-13T13:51:16.188Z,1.01
2019-05-13T13:56:25.724Z,1.28
2019-05-13T14:01:34.112Z,1.28
2019-05-13T14:07:22.514Z,1.09
2019-05-13T14:11:51.863Z,1.34
2019-05-13T14:17:02.403Z,1.29
2019-05-13T14:22:12.322Z,1.03
2019-05-13T14:27:18.409Z,1.28
2019-05-13T14:32:27.557Z,1.21
2019-05-13T14:37:36.663Z,1.20
2019-05-13T14:42:45.799Z,1.15
2019-05-13T14:47:54.935Z,1.26
2019-05-13T14:53:04.160Z,1.48
2019-05-13T14:58:13.286Z,1.35
2019-05-13T15:03:22.480Z,1.20
2019-05-13T15:08:32.828Z,0.83
2019-05-13T15:13:42.417Z,0.85
2019-05-13T15:18:48.853Z,0.85
2019-05-13T15:23:58.038Z,1.15
2019-05-13T15:29:11.203Z,1.17
2019-05-13T15:34:07.798Z,1.17
2019-05-13T15:39:16.954Z,1.10
2019-05-13T15:44:26.062Z,0.97
2019-05-13T15:49:35.272Z,1.25
2019-05-13T15:54:44.559Z,1.35
2019-05-13T15:59:53.821Z,1.36
2019-05-13T16:05:04.853Z,1.19
2019-05-13T16:10:11.606Z,1.14
2019-05-13T16:15:21.694Z,1.01
2019-05-13T16:20:31.994Z,1.06
2019-05-13T16:25:38.062Z,1.04
2019-05-13T16:30:47.120Z,0.96
2019-05-13T16:35:56.244Z,0.98
2019-05-13T16:41:05.325Z,1.05
2019-05-13T16:46:14.513Z,0.93
2019-05-13T16:51:23.583Z,0.87
2019-05-13T16:56:33.454Z,0.88
2019-05-13T17:01:42.040Z,1.09
2019-05-13T17:06:50.068Z,0.86
2019-05-13T17:12:01.255Z,1.05
2019-05-13T17:17:08.475Z,1.02
2019-05-13T17:22:17.545Z,1.16
2019-05-13T17:27:26.829Z,0.93
2019-05-13T17:32:35.911Z,0.98
2019-05-13T17:37:45.191Z,1.11
2019-05-13T17:42:54.259Z,1.16
2019-05-13T17:48:03.440Z,0.95
2019-05-13T17:53:12.517Z,0.89
2019-05-13T17:58:27.330Z,1.17
2019-05-13T18:03:26.372Z,1.09
2019-05-13T18:08:35.494Z,1.08
2019-05-13T18:13:44.566Z,1.23
2019-05-13T18:18:53.706Z,0.97
2019-05-13T18:24:02.772Z,1.31
2019-05-13T18:29:12.509Z,1.16
2019-05-13T18:34:21.556Z,1.03
2019-05-13T18:39:32.032Z,1.11
2019-05-13T18:44:38.216Z,1.09
2019-05-13T18:49:47.365Z,1.09
2019-05-13T18:54:56.432Z,1.04
2019-05-13T19:00:05.573Z,1.07
2019-05-13T19:05:14.647Z,0.99
2019-05-13T19:10:24.222Z,1.07
2019-05-13T19:15:33.304Z,0.94
2019-05-13T19:20:42.512Z,0.97
2019-05-13T19:25:51.576Z,0.93
2019-05-13T19:31:02.302Z,0.93
2019-05-13T19:36:11.628Z,1.06
2019-05-13T19:41:19.125Z,1.10
2019-05-13T19:46:26.718Z,0.91
2019-05-13T19:51:35.921Z,0.96
2019-05-13T19:56:45.028Z,0.86
2019-05-13T20:01:54.146Z,0.99
2019-05-13T20:07:03.227Z,0.94
2019-05-13T20:12:15.367Z,1.00
2019-05-13T20:17:20.940Z,0.95
2019-05-13T20:22:31.337Z,1.13
2019-05-13T20:27:38.655Z,1.04
2019-05-13T20:32:47.833Z,0.79
2019-05-13T20:37:56.889Z,1.00
2019-05-13T20:43:06.027Z,0.82
2019-05-13T20:48:15.074Z,1.04
2019-05-13T20:53:24.178Z,0.95
2019-05-13T20:58:33.248Z,0.96
2019-05-13T21:03:42.368Z,1.09
2019-05-13T21:08:52.167Z,1.02
2019-05-13T21:14:01.176Z,0.99
2019-05-13T21:19:08.736Z,1.13
2019-05-13T21:24:17.867Z,0.94
2019-05-13T21:29:26.958Z,0.85
2019-05-13T21:34:36.083Z,0.99
2019-05-13T21:39:45.165Z,1.01
2019-05-13T21:44:54.374Z,0.90
2019-05-13T21:50:03.434Z,0.96
2019-05-13T21:55:12.548Z,1.06
2019-05-13T22:00:23.669Z,0.94
2019-05-13T22:05:31.402Z,0.99
2019-05-13T22:10:38.812Z,1.01
2019-05-13T22:15:47.922Z,1.07
2019-05-13T22:20:56.973Z,1.12
2019-05-13T22:26:06.085Z,0.98
2019-05-13T22:31:15.124Z,1.03
2019-05-13T22:36:24.759Z,1.09
2019-05-13T22:41:33.821Z,0.93
2019-05-13T22:46:42.952Z,1.09
2019-05-13T22:51:52.016Z,1.04
2019-05-13T22:57:01.227Z,1.05
2019-05-13T23:02:10.280Z,0.96
2019-05-13T23:07:19.569Z,0.91
2019-05-13T23:12:28.631Z,0.97
2019-05-13T23:17:38.064Z,0.91
2019-05-13T23:22:47.106Z,0.92
2019-05-13T23:27:56.201Z,1.12
2019-05-13T23:33:05.253Z,1.07
2019-05-13T23:38:14.398Z,0.90
2019-05-13T23:43:23.490Z,0.88
2019-05-13T23:48:32.601Z,1.18
2019-05-13T23:53:41.767Z,1.11
2019-05-13T23:58:51.958Z,1.09
